sensor_id;sensor_type;location;lat;lon;timestamp;temperature;humidity
1626;DHT22;806;48.770;9.156;2023-10-31T00:01:06;12.20;99.90
1626;DHT22;806;48.770;9.156;2023-10-31T00:03:33;12.30;99.90
1626;DHT22;806;48.770;9.156;2023-10-31T00:05:59;12.20;99.90
1626;DHT22;806;48.770;9.156;2023-10-31T00:08:28;12.30;99.90
1626;DHT22;806;48.770;9.156;2023-10-31T00:10:55;12.40;99.90
1626;DHT22;806;48.770;9.156;2023-10-31T00:13:22;12.30;99.90
1626;DHT22;806;48.770;9.156;2023-10-31T00:15:49;12.20;99.90
1626;DHT22;806;48.770;9.156;2023-10-31T00:21:37;12.40;99.90
1626;DHT22;806;48.770;9.156;2023-10-31T00:24:07;12.30;99.90
1626;DHT22;806;48.770;9.156;2023-10-31T00:26:34;12.30;99.90
1626;DHT22;806;48.770;9.156;2023-10-31T00:29:01;12.30;99.90
1626;DHT22;806;48.770;9.156;2023-10-31T00:31:28;12.40;99.90
1626;DHT22;806;48.770;9.156;2023-10-31T00:33:55;12.50;99.90
1626;DHT22;806;48.770;9.156;2023-10-31T00:36:23;12.50;99.90
1626;DHT22;806;48.770;9.156;2023-10-31T00:38:50;12.60;99.90
1626;DHT22;806;48.770;9.156;2023-10-31T00:41:18;12.50;99.90
1626;DHT22;806;48.770;9.156;2023-10-31T00:43:45;12.70;99.90
1626;DHT22;806;48.770;9.156;2023-10-31T00:46:12;12.70;99.90
1626;DHT22;806;48.770;9.156;2023-10-31T00:48:39;12.70;99.90
1626;DHT22;806;48.770;9.156;2023-10-31T00:51:06;12.80;99.90
1626;DHT22;806;48.770;9.156;2023-10-31T00:53:33;12.60;99.90
1626;DHT22;806;48.770;9.156;2023-10-31T00:56:01;12.70;99.90
1626;DHT22;806;48.770;9.156;2023-10-31T00:58:29;12.70;99.90
1626;DHT22;806;48.770;9.156;2023-10-31T01:04:18;12.50;99.90
1626;DHT22;806;48.770;9.156;2023-10-31T01:06:46;12.60;99.90
1626;DHT22;806;48.770;9.156;2023-10-31T01:09:13;12.60;99.90
1626;DHT22;806;48.770;9.156;2023-10-31T01:11:40;12.60;99.90
1626;DHT22;806;48.770;9.156;2023-10-31T01:14:08;12.50;99.90
1626;DHT22;806;48.770;9.156;2023-10-31T01:16:35;12.50;99.90
1626;DHT22;806;48.770;9.156;2023-10-31T01:19:02;12.40;99.90
1626;DHT22;806;48.770;9.156;2023-10-31T01:21:29;12.40;99.90
1626;DHT22;806;48.770;9.156;2023-10-31T01:23:56;12.40;99.90
1626;DHT22;806;48.770;9.156;2023-10-31T01:26:23;12.50;99.90
1626;DHT22;806;48.770;9.156;2023-10-31T01:28:50;12.50;99.90
1626;DHT22;806;48.770;9.156;2023-10-31T01:31:18;12.50;99.90
1626;DHT22;806;48.770;9.156;2023-10-31T01:33:45;12.40;99.90
1626;DHT22;806;48.770;9.156;2023-10-31T01:36:13;12.40;99.90
1626;DHT22;806;48.770;9.156;2023-10-31T01:38:40;12.30;99.90
1626;DHT22;806;48.770;9.156;2023-10-31T01:41:07;12.30;99.90
1626;DHT22;806;48.770;9.156;2023-10-31T01:43:36;12.20;99.90
1626;DHT22;806;48.770;9.156;2023-10-31T01:46:03;12.10;99.90
1626;DHT22;806;48.770;9.156;2023-10-31T01:48:32;12.00;99.90
1626;DHT22;806;48.770;9.156;2023-10-31T01:51:02;12.10;99.90
1626;DHT22;806;48.770;9.156;2023-10-31T01:53:31;12.10;99.90
1626;DHT22;806;48.770;9.156;2023-10-31T01:55:59;12.10;99.90
1626;DHT22;806;48.770;9.156;2023-10-31T01:58:30;12.10;99.90
1626;DHT22;806;48.770;9.156;2023-10-31T02:00:58;12.10;99.90
1626;DHT22;806;48.770;9.156;2023-10-31T02:03:26;12.00;99.90
1626;DHT22;806;48.770;9.156;2023-10-31T02:05:54;11.80;99.90
1626;DHT22;806;48.770;9.156;2023-10-31T02:08:21;11.70;99.90
1626;DHT22;806;48.770;9.156;2023-10-31T02:10:48;11.60;99.90
1626;DHT22;806;48.770;9.156;2023-10-31T02:13:17;11.60;99.90
1626;DHT22;806;48.770;9.156;2023-10-31T02:15:45;11.60;99.90
1626;DHT22;806;48.770;9.156;2023-10-31T02:18:12;11.50;99.90
1626;DHT22;806;48.770;9.156;2023-10-31T02:20:39;11.40;99.90
1626;DHT22;806;48.770;9.156;2023-10-31T02:23:07;11.40;99.90
1626;DHT22;806;48.770;9.156;2023-10-31T02:25:35;11.30;99.90
1626;DHT22;806;48.770;9.156;2023-10-31T02:28:02;11.30;99.90
1626;DHT22;806;48.770;9.156;2023-10-31T02:30:29;11.20;99.90
1626;DHT22;806;48.770;9.156;2023-10-31T02:32:56;11.20;99.90
1626;DHT22;806;48.770;9.156;2023-10-31T02:35:23;11.10;99.90
1626;DHT22;806;48.770;9.156;2023-10-31T02:37:52;11.10;99.90
1626;DHT22;806;48.770;9.156;2023-10-31T02:40:20;11.20;99.90
1626;DHT22;806;48.770;9.156;2023-10-31T02:42:47;11.20;99.90
1626;DHT22;806;48.770;9.156;2023-10-31T02:45:14;11.20;99.90
1626;DHT22;806;48.770;9.156;2023-10-31T02:47:41;11.20;99.90
1626;DHT22;806;48.770;9.156;2023-10-31T02:50:08;11.40;99.90
1626;DHT22;806;48.770;9.156;2023-10-31T02:52:35;11.40;99.90
1626;DHT22;806;48.770;9.156;2023-10-31T02:55:03;11.40;99.90
1626;DHT22;806;48.770;9.156;2023-10-31T02:57:31;11.40;99.90
1626;DHT22;806;48.770;9.156;2023-10-31T02:59:58;11.40;99.90
1626;DHT22;806;48.770;9.156;2023-10-31T03:02:25;11.40;99.90
1626;DHT22;806;48.770;9.156;2023-10-31T03:04:52;11.50;99.90
1626;DHT22;806;48.770;9.156;2023-10-31T03:07:19;11.50;99.90
1626;DHT22;806;48.770;9.156;2023-10-31T03:09:46;11.50;99.90
1626;DHT22;806;48.770;9.156;2023-10-31T03:12:13;11.40;99.90
1626;DHT22;806;48.770;9.156;2023-10-31T03:14:42;11.40;99.90
1626;DHT22;806;48.770;9.156;2023-10-31T03:17:09;11.40;99.90
1626;DHT22;806;48.770;9.156;2023-10-31T03:19:36;11.40;99.90
1626;DHT22;806;48.770;9.156;2023-10-31T03:22:03;11.40;99.90
1626;DHT22;806;48.770;9.156;2023-10-31T03:24:31;11.30;99.90
1626;DHT22;806;48.770;9.156;2023-10-31T03:26:58;11.30;99.90
1626;DHT22;806;48.770;9.156;2023-10-31T03:29:25;11.20;99.90
1626;DHT22;806;48.770;9.156;2023-10-31T03:31:54;11.20;99.90
1626;DHT22;806;48.770;9.156;2023-10-31T03:34:21;11.20;99.90
1626;DHT22;806;48.770;9.156;2023-10-31T03:36:48;11.10;99.90
1626;DHT22;806;48.770;9.156;2023-10-31T03:39:15;11.10;99.90
1626;DHT22;806;48.770;9.156;2023-10-31T03:41:42;11.10;99.90
1626;DHT22;806;48.770;9.156;2023-10-31T03:44:10;11.00;99.90
1626;DHT22;806;48.770;9.156;2023-10-31T03:46:37;11.00;99.90
1626;DHT22;806;48.770;9.156;2023-10-31T03:49:05;11.00;99.90
1626;DHT22;806;48.770;9.156;2023-10-31T03:51:33;11.00;99.90
1626;DHT22;806;48.770;9.156;2023-10-31T03:54:00;11.10;99.90
1626;DHT22;806;48.770;9.156;2023-10-31T03:56:27;11.10;99.90
1626;DHT22;806;48.770;9.156;2023-10-31T03:58:54;11.10;99.90
1626;DHT22;806;48.770;9.156;2023-10-31T04:01:21;11.10;99.90
1626;DHT22;806;48.770;9.156;2023-10-31T04:03:48;11.10;99.90
1626;DHT22;806;48.770;9.156;2023-10-31T04:06:16;11.10;99.90
1626;DHT22;806;48.770;9.156;2023-10-31T04:08:43;11.10;99.90
1626;DHT22;806;48.770;9.156;2023-10-31T04:11:10;11.00;99.90
1626;DHT22;806;48.770;9.156;2023-10-31T04:13:37;11.00;99.90
1626;DHT22;806;48.770;9.156;2023-10-31T04:16:04;10.90;99.90
1626;DHT22;806;48.770;9.156;2023-10-31T04:18:31;10.90;99.90
1626;DHT22;806;48.770;9.156;2023-10-31T04:20:58;10.90;99.90
1626;DHT22;806;48.770;9.156;2023-10-31T04:23:27;10.90;99.90
1626;DHT22;806;48.770;9.156;2023-10-31T04:25:54;10.90;99.90
1626;DHT22;806;48.770;9.156;2023-10-31T04:28:21;10.90;99.90
1626;DHT22;806;48.770;9.156;2023-10-31T04:30:48;10.80;99.90
1626;DHT22;806;48.770;9.156;2023-10-31T04:33:15;10.80;99.90
1626;DHT22;806;48.770;9.156;2023-10-31T04:35:42;10.80;99.90
1626;DHT22;806;48.770;9.156;2023-10-31T04:38:08;10.80;99.90
1626;DHT22;806;48.770;9.156;2023-10-31T04:40:37;10.80;99.90
1626;DHT22;806;48.770;9.156;2023-10-31T04:43:04;10.80;99.90
1626;DHT22;806;48.770;9.156;2023-10-31T04:45:31;10.70;99.90
1626;DHT22;806;48.770;9.156;2023-10-31T04:47:58;10.70;99.90
1626;DHT22;806;48.770;9.156;2023-10-31T04:50:25;10.60;99.90
1626;DHT22;806;48.770;9.156;2023-10-31T04:52:52;10.50;99.90
1626;DHT22;806;48.770;9.156;2023-10-31T04:55:19;10.60;99.90
1626;DHT22;806;48.770;9.156;2023-10-31T04:57:47;10.60;99.90
1626;DHT22;806;48.770;9.156;2023-10-31T05:00:15;10.60;99.90
1626;DHT22;806;48.770;9.156;2023-10-31T05:02:42;10.60;99.90
1626;DHT22;806;48.770;9.156;2023-10-31T05:05:09;10.60;99.90
1626;DHT22;806;48.770;9.156;2023-10-31T05:07:36;10.60;99.90
1626;DHT22;806;48.770;9.156;2023-10-31T05:10:03;10.60;99.90
1626;DHT22;806;48.770;9.156;2023-10-31T05:12:30;10.60;99.90
1626;DHT22;806;48.770;9.156;2023-10-31T05:14:58;10.70;99.90
1626;DHT22;806;48.770;9.156;2023-10-31T05:17:25;10.70;99.90
1626;DHT22;806;48.770;9.156;2023-10-31T05:19:52;10.70;99.90
1626;DHT22;806;48.770;9.156;2023-10-31T05:22:19;10.70;99.90
1626;DHT22;806;48.770;9.156;2023-10-31T05:24:46;10.70;99.90
1626;DHT22;806;48.770;9.156;2023-10-31T05:27:13;10.70;99.90
1626;DHT22;806;48.770;9.156;2023-10-31T05:29:40;10.70;99.90
1626;DHT22;806;48.770;9.156;2023-10-31T05:32:09;10.70;99.90
1626;DHT22;806;48.770;9.156;2023-10-31T05:34:36;10.60;99.90
1626;DHT22;806;48.770;9.156;2023-10-31T05:37:03;10.60;99.90
1626;DHT22;806;48.770;9.156;2023-10-31T05:39:31;10.60;99.90
1626;DHT22;806;48.770;9.156;2023-10-31T05:41:58;10.60;99.90
1626;DHT22;806;48.770;9.156;2023-10-31T05:44:25;10.60;99.90
1626;DHT22;806;48.770;9.156;2023-10-31T05:46:52;10.60;99.90
1626;DHT22;806;48.770;9.156;2023-10-31T05:49:21;10.60;99.90
1626;DHT22;806;48.770;9.156;2023-10-31T05:51:50;10.50;99.90
1626;DHT22;806;48.770;9.156;2023-10-31T05:54:17;10.50;99.90
1626;DHT22;806;48.770;9.156;2023-10-31T05:56:44;10.40;99.90
1626;DHT22;806;48.770;9.156;2023-10-31T05:59:11;10.30;99.90
1626;DHT22;806;48.770;9.156;2023-10-31T06:01:38;10.30;99.90
1626;DHT22;806;48.770;9.156;2023-10-31T06:04:05;10.30;99.90
1626;DHT22;806;48.770;9.156;2023-10-31T06:06:37;10.30;99.90
1626;DHT22;806;48.770;9.156;2023-10-31T06:09:04;10.20;99.90
1626;DHT22;806;48.770;9.156;2023-10-31T06:11:31;10.20;99.90
1626;DHT22;806;48.770;9.156;2023-10-31T06:13:58;10.30;99.90
1626;DHT22;806;48.770;9.156;2023-10-31T06:16:25;10.40;99.90
1626;DHT22;806;48.770;9.156;2023-10-31T06:18:53;10.60;99.90
1626;DHT22;806;48.770;9.156;2023-10-31T06:21:19;10.60;99.90
1626;DHT22;806;48.770;9.156;2023-10-31T06:23:48;10.60;99.90
1626;DHT22;806;48.770;9.156;2023-10-31T06:26:15;10.60;99.90
1626;DHT22;806;48.770;9.156;2023-10-31T06:28:42;10.50;99.90
1626;DHT22;806;48.770;9.156;2023-10-31T06:31:09;10.50;99.90
1626;DHT22;806;48.770;9.156;2023-10-31T06:33:35;10.50;99.90
1626;DHT22;806;48.770;9.156;2023-10-31T06:36:03;10.40;99.90
1626;DHT22;806;48.770;9.156;2023-10-31T06:38:30;10.40;99.90
1626;DHT22;806;48.770;9.156;2023-10-31T06:40:58;10.40;99.90
1626;DHT22;806;48.770;9.156;2023-10-31T06:43:25;10.40;99.90
1626;DHT22;806;48.770;9.156;2023-10-31T06:45:53;10.30;99.90
1626;DHT22;806;48.770;9.156;2023-10-31T06:48:20;10.30;99.90
1626;DHT22;806;48.770;9.156;2023-10-31T06:50:47;10.30;99.90
1626;DHT22;806;48.770;9.156;2023-10-31T06:53:14;10.50;99.90
1626;DHT22;806;48.770;9.156;2023-10-31T06:55:41;10.70;99.90
1626;DHT22;806;48.770;9.156;2023-10-31T06:58:09;10.70;99.90
1626;DHT22;806;48.770;9.156;2023-10-31T07:00:36;10.60;99.90
1626;DHT22;806;48.770;9.156;2023-10-31T07:03:04;10.60;99.90
1626;DHT22;806;48.770;9.156;2023-10-31T07:05:34;10.60;99.90
1626;DHT22;806;48.770;9.156;2023-10-31T07:08:01;10.60;99.90
1626;DHT22;806;48.770;9.156;2023-10-31T07:10:29;10.60;99.90
1626;DHT22;806;48.770;9.156;2023-10-31T07:12:56;10.70;99.90
1626;DHT22;806;48.770;9.156;2023-10-31T07:15:25;10.60;99.90
1626;DHT22;806;48.770;9.156;2023-10-31T07:17:52;10.60;99.90
1626;DHT22;806;48.770;9.156;2023-10-31T07:20:19;10.60;99.90
1626;DHT22;806;48.770;9.156;2023-10-31T07:22:46;10.60;99.90
1626;DHT22;806;48.770;9.156;2023-10-31T07:25:13;10.60;99.90
1626;DHT22;806;48.770;9.156;2023-10-31T07:27:40;10.50;99.90
1626;DHT22;806;48.770;9.156;2023-10-31T07:30:08;10.50;99.90
1626;DHT22;806;48.770;9.156;2023-10-31T07:32:36;10.50;99.90
1626;DHT22;806;48.770;9.156;2023-10-31T07:35:03;10.50;99.90
1626;DHT22;806;48.770;9.156;2023-10-31T07:37:30;10.60;99.90
1626;DHT22;806;48.770;9.156;2023-10-31T07:39:57;10.60;99.90
1626;DHT22;806;48.770;9.156;2023-10-31T07:42:24;10.80;99.90
1626;DHT22;806;48.770;9.156;2023-10-31T07:44:51;11.00;99.90
1626;DHT22;806;48.770;9.156;2023-10-31T07:47:18;11.10;99.90
1626;DHT22;806;48.770;9.156;2023-10-31T07:49:47;11.10;99.90
1626;DHT22;806;48.770;9.156;2023-10-31T07:52:14;11.00;99.90
1626;DHT22;806;48.770;9.156;2023-10-31T07:54:41;11.00;99.90
1626;DHT22;806;48.770;9.156;2023-10-31T07:57:09;10.90;99.90
1626;DHT22;806;48.770;9.156;2023-10-31T07:59:36;11.00;99.90
1626;DHT22;806;48.770;9.156;2023-10-31T08:02:03;11.10;99.90
1626;DHT22;806;48.770;9.156;2023-10-31T08:04:31;11.10;99.90
1626;DHT22;806;48.770;9.156;2023-10-31T08:06:59;11.00;99.90
1626;DHT22;806;48.770;9.156;2023-10-31T08:09:27;11.00;99.90
1626;DHT22;806;48.770;9.156;2023-10-31T08:11:54;11.00;99.90
1626;DHT22;806;48.770;9.156;2023-10-31T08:14:21;11.10;99.90
1626;DHT22;806;48.770;9.156;2023-10-31T08:16:48;11.20;99.90
1626;DHT22;806;48.770;9.156;2023-10-31T08:19:15;11.30;99.90
1626;DHT22;806;48.770;9.156;2023-10-31T08:21:42;11.50;99.90
1626;DHT22;806;48.770;9.156;2023-10-31T08:24:11;11.50;99.90
1626;DHT22;806;48.770;9.156;2023-10-31T08:26:39;11.80;99.90
1626;DHT22;806;48.770;9.156;2023-10-31T08:29:06;11.80;99.90
1626;DHT22;806;48.770;9.156;2023-10-31T08:31:33;11.90;99.90
1626;DHT22;806;48.770;9.156;2023-10-31T08:34:00;11.90;99.90
1626;DHT22;806;48.770;9.156;2023-10-31T08:36:26;11.90;99.90
1626;DHT22;806;48.770;9.156;2023-10-31T08:38:54;11.90;99.90
1626;DHT22;806;48.770;9.156;2023-10-31T08:41:22;11.90;99.90
1626;DHT22;806;48.770;9.156;2023-10-31T08:43:49;11.90;99.90
1626;DHT22;806;48.770;9.156;2023-10-31T08:46:16;12.00;99.90
1626;DHT22;806;48.770;9.156;2023-10-31T08:48:43;11.90;98.10
1626;DHT22;806;48.770;9.156;2023-10-31T08:51:10;12.00;99.90
1626;DHT22;806;48.770;9.156;2023-10-31T08:53:37;12.10;99.90
1626;DHT22;806;48.770;9.156;2023-10-31T08:56:05;12.20;95.20
1626;DHT22;806;48.770;9.156;2023-10-31T08:58:33;12.30;93.70
1626;DHT22;806;48.770;9.156;2023-10-31T09:01:00;12.30;73.20
1626;DHT22;806;48.770;9.156;2023-10-31T09:03:27;12.50;96.70
1626;DHT22;806;48.770;9.156;2023-10-31T09:05:54;12.70;70.80
1626;DHT22;806;48.770;9.156;2023-10-31T09:08:21;12.60;50.80
1626;DHT22;806;48.770;9.156;2023-10-31T09:10:48;12.60;57.80
1626;DHT22;806;48.770;9.156;2023-10-31T09:13:15;12.70;57.20
1626;DHT22;806;48.770;9.156;2023-10-31T09:15:43;12.80;54.50
1626;DHT22;806;48.770;9.156;2023-10-31T09:18:11;12.80;50.00
1626;DHT22;806;48.770;9.156;2023-10-31T09:20:38;12.90;46.70
1626;DHT22;806;48.770;9.156;2023-10-31T09:23:05;12.80;48.30
1626;DHT22;806;48.770;9.156;2023-10-31T09:25:32;12.90;61.80
1626;DHT22;806;48.770;9.156;2023-10-31T09:28:00;13.10;22.10
1626;DHT22;806;48.770;9.156;2023-10-31T09:30:27;13.10;17.40
1626;DHT22;806;48.770;9.156;2023-10-31T09:32:55;13.10;12.50
1626;DHT22;806;48.770;9.156;2023-10-31T09:35:22;13.00;17.10
1626;DHT22;806;48.770;9.156;2023-10-31T09:37:49;13.00;33.80
1626;DHT22;806;48.770;9.156;2023-10-31T09:40:16;13.00;31.40
1626;DHT22;806;48.770;9.156;2023-10-31T09:42:44;13.00;27.10
1626;DHT22;806;48.770;9.156;2023-10-31T09:45:12;13.00;34.50
1626;DHT22;806;48.770;9.156;2023-10-31T09:47:39;13.00;31.60
1626;DHT22;806;48.770;9.156;2023-10-31T09:50:09;13.00;39.40
1626;DHT22;806;48.770;9.156;2023-10-31T09:52:37;13.00;7.30
1626;DHT22;806;48.770;9.156;2023-10-31T09:55:05;13.00;22.50
1626;DHT22;806;48.770;9.156;2023-10-31T09:57:33;13.10;37.30
1626;DHT22;806;48.770;9.156;2023-10-31T10:00:00;13.20;9.70
1626;DHT22;806;48.770;9.156;2023-10-31T10:02:27;13.20;2.90
1626;DHT22;806;48.770;9.156;2023-10-31T10:04:54;13.30;29.50
1626;DHT22;806;48.770;9.156;2023-10-31T10:07:22;13.40;10.80
1626;DHT22;806;48.770;9.156;2023-10-31T10:09:50;13.50;1.00
1626;DHT22;806;48.770;9.156;2023-10-31T10:12:17;13.60;1.00
1626;DHT22;806;48.770;9.156;2023-10-31T10:14:45;13.60;1.00
1626;DHT22;806;48.770;9.156;2023-10-31T10:17:20;13.60;1.00
1626;DHT22;806;48.770;9.156;2023-10-31T10:19:47;13.60;7.10
1626;DHT22;806;48.770;9.156;2023-10-31T10:22:15;13.60;1.00
1626;DHT22;806;48.770;9.156;2023-10-31T10:24:48;13.70;5.40
1626;DHT22;806;48.770;9.156;2023-10-31T10:27:15;13.70;2.70
1626;DHT22;806;48.770;9.156;2023-10-31T10:29:44;13.70;1.00
1626;DHT22;806;48.770;9.156;2023-10-31T10:32:11;13.80;18.70
1626;DHT22;806;48.770;9.156;2023-10-31T10:34:38;13.90;1.60
1626;DHT22;806;48.770;9.156;2023-10-31T10:37:05;13.90;4.60
1626;DHT22;806;48.770;9.156;2023-10-31T10:39:33;14.00;1.00
1626;DHT22;806;48.770;9.156;2023-10-31T10:42:09;13.90;1.00
1626;DHT22;806;48.770;9.156;2023-10-31T10:44:39;13.70;1.00
1626;DHT22;806;48.770;9.156;2023-10-31T10:47:06;13.70;1.00
1626;DHT22;806;48.770;9.156;2023-10-31T10:49:34;13.70;1.00
1626;DHT22;806;48.770;9.156;2023-10-31T10:52:17;13.60;1.00
1626;DHT22;806;48.770;9.156;2023-10-31T10:54:47;13.70;4.20
1626;DHT22;806;48.770;9.156;2023-10-31T10:57:22;13.70;1.00
1626;DHT22;806;48.770;9.156;2023-10-31T10:59:52;13.60;1.00
1626;DHT22;806;48.770;9.156;2023-10-31T11:02:23;13.70;15.40
1626;DHT22;806;48.770;9.156;2023-10-31T11:04:51;13.70;26.20
1626;DHT22;806;48.770;9.156;2023-10-31T11:07:19;13.80;5.90
1626;DHT22;806;48.770;9.156;2023-10-31T11:09:48;13.80;1.00
1626;DHT22;806;48.770;9.156;2023-10-31T11:12:18;13.90;8.90
1626;DHT22;806;48.770;9.156;2023-10-31T11:14:46;13.80;1.00
1626;DHT22;806;48.770;9.156;2023-10-31T11:17:22;13.80;1.00
1626;DHT22;806;48.770;9.156;2023-10-31T11:19:51;14.00;1.00
1626;DHT22;806;48.770;9.156;2023-10-31T11:22:19;14.10;1.00
1626;DHT22;806;48.770;9.156;2023-10-31T11:24:49;14.00;1.00
1626;DHT22;806;48.770;9.156;2023-10-31T11:27:18;13.90;1.00
1626;DHT22;806;48.770;9.156;2023-10-31T11:29:45;13.80;1.00
1626;DHT22;806;48.770;9.156;2023-10-31T11:32:12;13.70;4.40
1626;DHT22;806;48.770;9.156;2023-10-31T11:34:41;13.80;21.50
1626;DHT22;806;48.770;9.156;2023-10-31T11:37:25;13.70;4.40
1626;DHT22;806;48.770;9.156;2023-10-31T11:40:19;13.70;10.60
1626;DHT22;806;48.770;9.156;2023-10-31T11:42:52;13.60;10.50
1626;DHT22;806;48.770;9.156;2023-10-31T11:45:27;13.50;15.80
1626;DHT22;806;48.770;9.156;2023-10-31T11:47:55;13.50;15.80
1626;DHT22;806;48.770;9.156;2023-10-31T11:50:23;13.40;19.70
1626;DHT22;806;48.770;9.156;2023-10-31T11:53:05;13.40;22.60
1626;DHT22;806;48.770;9.156;2023-10-31T11:55:33;13.40;28.00
1626;DHT22;806;48.770;9.156;2023-10-31T11:58:17;13.40;20.10
1626;DHT22;806;48.770;9.156;2023-10-31T12:00:45;13.50;18.30
1626;DHT22;806;48.770;9.156;2023-10-31T12:03:16;13.70;27.20
1626;DHT22;806;48.770;9.156;2023-10-31T12:05:51;13.80;4.10
1626;DHT22;806;48.770;9.156;2023-10-31T12:08:27;13.90;6.80
1626;DHT22;806;48.770;9.156;2023-10-31T12:11:03;14.10;1.00
1626;DHT22;806;48.770;9.156;2023-10-31T12:13:32;14.00;1.00
1626;DHT22;806;48.770;9.156;2023-10-31T12:16:00;14.00;1.00
1626;DHT22;806;48.770;9.156;2023-10-31T12:18:27;14.00;5.50
1626;DHT22;806;48.770;9.156;2023-10-31T12:20:55;14.10;1.00
1626;DHT22;806;48.770;9.156;2023-10-31T12:23:22;14.20;1.00
1626;DHT22;806;48.770;9.156;2023-10-31T12:25:50;14.20;5.30
1626;DHT22;806;48.770;9.156;2023-10-31T12:28:17;14.00;16.40
1626;DHT22;806;48.770;9.156;2023-10-31T12:30:46;13.80;25.40
1626;DHT22;806;48.770;9.156;2023-10-31T12:33:13;13.70;69.00
1626;DHT22;806;48.770;9.156;2023-10-31T12:35:41;13.60;82.80
1626;DHT22;806;48.770;9.156;2023-10-31T12:38:10;13.50;99.90
1626;DHT22;806;48.770;9.156;2023-10-31T12:40:38;13.40;99.90
1626;DHT22;806;48.770;9.156;2023-10-31T12:43:06;13.40;99.90
1626;DHT22;806;48.770;9.156;2023-10-31T12:45:34;13.40;99.90
1626;DHT22;806;48.770;9.156;2023-10-31T12:48:03;13.30;99.90
1626;DHT22;806;48.770;9.156;2023-10-31T12:50:31;13.20;99.90
1626;DHT22;806;48.770;9.156;2023-10-31T12:52:58;13.30;99.90
1626;DHT22;806;48.770;9.156;2023-10-31T12:55:27;13.20;99.90
1626;DHT22;806;48.770;9.156;2023-10-31T12:57:55;13.20;99.90
1626;DHT22;806;48.770;9.156;2023-10-31T13:00:23;13.30;99.90
1626;DHT22;806;48.770;9.156;2023-10-31T13:03:00;13.40;99.90
1626;DHT22;806;48.770;9.156;2023-10-31T13:05:28;13.50;99.90
1626;DHT22;806;48.770;9.156;2023-10-31T13:07:57;13.50;99.90
1626;DHT22;806;48.770;9.156;2023-10-31T13:10:26;13.50;99.90
1626;DHT22;806;48.770;9.156;2023-10-31T13:12:54;13.40;99.90
1626;DHT22;806;48.770;9.156;2023-10-31T13:15:22;13.30;99.90
1626;DHT22;806;48.770;9.156;2023-10-31T13:17:50;13.20;99.90
1626;DHT22;806;48.770;9.156;2023-10-31T13:20:18;13.20;99.90
1626;DHT22;806;48.770;9.156;2023-10-31T13:22:47;13.20;99.90
1626;DHT22;806;48.770;9.156;2023-10-31T13:25:15;13.40;99.90
1626;DHT22;806;48.770;9.156;2023-10-31T13:27:43;13.50;99.90
1626;DHT22;806;48.770;9.156;2023-10-31T13:30:13;13.60;94.00
1626;DHT22;806;48.770;9.156;2023-10-31T13:32:43;13.60;90.20
1626;DHT22;806;48.770;9.156;2023-10-31T13:35:10;13.50;93.10
1626;DHT22;806;48.770;9.156;2023-10-31T13:37:38;13.60;99.80
1626;DHT22;806;48.770;9.156;2023-10-31T13:40:07;13.70;99.90
1626;DHT22;806;48.770;9.156;2023-10-31T13:42:35;14.00;99.90
1626;DHT22;806;48.770;9.156;2023-10-31T13:45:02;14.10;90.60
1626;DHT22;806;48.770;9.156;2023-10-31T13:47:29;14.20;63.90
1626;DHT22;806;48.770;9.156;2023-10-31T13:49:56;14.10;72.40
1626;DHT22;806;48.770;9.156;2023-10-31T13:52:23;14.00;92.40
1626;DHT22;806;48.770;9.156;2023-10-31T13:54:50;14.00;97.30
1626;DHT22;806;48.770;9.156;2023-10-31T13:57:19;13.70;88.30
1626;DHT22;806;48.770;9.156;2023-10-31T13:59:45;13.70;99.90
1626;DHT22;806;48.770;9.156;2023-10-31T14:02:13;13.60;98.50
1626;DHT22;806;48.770;9.156;2023-10-31T14:04:40;13.70;99.90
1626;DHT22;806;48.770;9.156;2023-10-31T14:07:07;13.70;99.90
1626;DHT22;806;48.770;9.156;2023-10-31T14:09:34;13.70;99.90
1626;DHT22;806;48.770;9.156;2023-10-31T14:12:01;13.60;99.90
1626;DHT22;806;48.770;9.156;2023-10-31T14:14:30;13.70;99.90
1626;DHT22;806;48.770;9.156;2023-10-31T14:16:57;13.60;99.90
1626;DHT22;806;48.770;9.156;2023-10-31T14:19:24;13.70;99.90
1626;DHT22;806;48.770;9.156;2023-10-31T14:21:51;13.70;99.90
1626;DHT22;806;48.770;9.156;2023-10-31T14:24:18;13.70;96.70
1626;DHT22;806;48.770;9.156;2023-10-31T14:26:47;13.80;99.90
1626;DHT22;806;48.770;9.156;2023-10-31T14:29:14;13.80;77.10
1626;DHT22;806;48.770;9.156;2023-10-31T14:31:43;13.80;93.80
1626;DHT22;806;48.770;9.156;2023-10-31T14:34:10;13.90;95.40
1626;DHT22;806;48.770;9.156;2023-10-31T14:36:37;14.00;83.10
1626;DHT22;806;48.770;9.156;2023-10-31T14:39:04;14.10;80.80
1626;DHT22;806;48.770;9.156;2023-10-31T14:41:31;14.10;71.80
1626;DHT22;806;48.770;9.156;2023-10-31T14:43:59;14.00;55.00
1626;DHT22;806;48.770;9.156;2023-10-31T14:46:27;13.90;54.10
1626;DHT22;806;48.770;9.156;2023-10-31T14:48:55;14.00;73.60
1626;DHT22;806;48.770;9.156;2023-10-31T14:51:22;13.80;52.10
1626;DHT22;806;48.770;9.156;2023-10-31T14:53:50;13.80;75.20
1626;DHT22;806;48.770;9.156;2023-10-31T14:56:17;13.80;91.50
1626;DHT22;806;48.770;9.156;2023-10-31T14:58:44;13.90;73.00
1626;DHT22;806;48.770;9.156;2023-10-31T15:01:11;13.80;66.00
1626;DHT22;806;48.770;9.156;2023-10-31T15:03:38;13.70;55.60
1626;DHT22;806;48.770;9.156;2023-10-31T15:06:07;13.60;76.60
1626;DHT22;806;48.770;9.156;2023-10-31T15:08:35;13.50;73.30
1626;DHT22;806;48.770;9.156;2023-10-31T15:11:02;13.50;94.10
1626;DHT22;806;48.770;9.156;2023-10-31T15:13:29;13.60;96.10
1626;DHT22;806;48.770;9.156;2023-10-31T15:15:56;13.70;92.00
1626;DHT22;806;48.770;9.156;2023-10-31T15:18:23;13.70;75.00
1626;DHT22;806;48.770;9.156;2023-10-31T15:20:50;13.70;58.90
1626;DHT22;806;48.770;9.156;2023-10-31T15:23:22;13.70;47.10
1626;DHT22;806;48.770;9.156;2023-10-31T15:25:49;13.60;74.00
1626;DHT22;806;48.770;9.156;2023-10-31T15:28:15;13.60;77.80
1626;DHT22;806;48.770;9.156;2023-10-31T15:30:42;13.70;92.20
1626;DHT22;806;48.770;9.156;2023-10-31T15:33:09;13.90;68.60
1626;DHT22;806;48.770;9.156;2023-10-31T15:35:36;14.00;37.10
1626;DHT22;806;48.770;9.156;2023-10-31T15:38:04;13.90;1.00
1626;DHT22;806;48.770;9.156;2023-10-31T15:40:32;13.70;10.00
1626;DHT22;806;48.770;9.156;2023-10-31T15:42:59;13.60;42.20
1626;DHT22;806;48.770;9.156;2023-10-31T15:45:26;13.60;38.90
1626;DHT22;806;48.770;9.156;2023-10-31T15:47:53;13.60;31.80
1626;DHT22;806;48.770;9.156;2023-10-31T15:50:20;13.40;49.70
1626;DHT22;806;48.770;9.156;2023-10-31T15:52:47;13.50;53.90
1626;DHT22;806;48.770;9.156;2023-10-31T15:55:14;13.30;38.70
1626;DHT22;806;48.770;9.156;2023-10-31T15:57:43;13.20;51.80
1626;DHT22;806;48.770;9.156;2023-10-31T16:00:11;13.20;62.10
1626;DHT22;806;48.770;9.156;2023-10-31T16:02:38;13.10;67.60
1626;DHT22;806;48.770;9.156;2023-10-31T16:05:06;13.10;86.50
1626;DHT22;806;48.770;9.156;2023-10-31T16:07:33;13.20;83.20
1626;DHT22;806;48.770;9.156;2023-10-31T16:10:03;13.20;79.10
1626;DHT22;806;48.770;9.156;2023-10-31T16:12:30;13.10;83.10
1626;DHT22;806;48.770;9.156;2023-10-31T16:14:59;13.00;91.20
1626;DHT22;806;48.770;9.156;2023-10-31T16:17:26;12.90;97.50
1626;DHT22;806;48.770;9.156;2023-10-31T16:19:53;12.90;99.30
1626;DHT22;806;48.770;9.156;2023-10-31T16:22:20;12.80;98.70
1626;DHT22;806;48.770;9.156;2023-10-31T16:24:47;12.70;99.90
1626;DHT22;806;48.770;9.156;2023-10-31T16:27:17;12.60;99.90
1626;DHT22;806;48.770;9.156;2023-10-31T16:29:44;12.60;99.90